Time;durP1;ratioP1;P1;durP2;ratioP2;P2;SDS_P1;SDS_P2;PMS_P1;PMS_P2;Temp;Humidity;BMP_temperature;BMP_pressure;BME280_temperature;BME280_humidity;BME280_pressure;Samples;Min_cycle;Max_cycle;Signal;HPM_P1;HPM_P2
2023/09/27 00:00:30;;;;;;;;;18.00;15.00;;;;;19.52;70.28;100597.25;5058019;28;45507;-81
2023/09/27 00:02:57;;;;;;;;;15.25;15.00;;;;;19.57;70.35;100600.75;5039801;28;45399;-76
2023/09/27 00:05:24;;;;;;;;;16.00;15.25;;;;;19.21;70.20;100535.63;5057226;28;45473;-76
2023/09/27 00:07:51;;;;;;;;;14.50;14.00;;;;;19.54;70.30;100600.78;5039713;28;45442;-82
2023/09/27 00:10:17;;;;;;;;;13.50;13.00;;;;;19.45;70.89;100600.81;5057637;28;45360;-83
2023/09/27 00:12:45;;;;;;;;;15.25;14.50;;;;;19.44;70.56;100596.44;5058590;28;45376;-75
2023/09/27 00:15:11;;;;;;;;;17.25;14.25;;;;;19.32;69.87;100583.22;5058603;28;45394;-75
2023/09/27 00:17:38;;;;;;;;;17.25;16.50;;;;;19.15;70.43;100586.84;5063531;28;45298;-76
2023/09/27 00:20:06;;;;;;;;;18.25;14.25;;;;;18.88;71.24;100578.16;5081821;28;44933;-75
2023/09/27 00:22:32;;;;;;;;;14.25;13.00;;;;;18.79;70.95;100567.59;5082172;28;45201;-79
2023/09/27 00:24:59;;;;;;;;;12.00;11.50;;;;;18.84;71.76;100570.19;5064425;28;44738;-75
2023/09/27 00:27:26;;;;;;;;;14.25;13.00;;;;;18.88;71.71;100564.91;5082150;28;45221;-75
2023/09/27 00:29:51;;;;;;;;;13.25;12.00;;;;;18.93;71.96;100561.38;5075651;28;45406;-83
2023/09/27 00:32:17;;;;;;;;;14.00;14.00;;;;;18.90;71.36;100541.09;5059467;28;45895;-75
2023/09/27 00:34:43;;;;;;;;;14.50;14.00;;;;;18.88;71.53;100541.09;5060118;28;45588;-75
2023/09/27 00:37:08;;;;;;;;;13.00;13.00;;;;;18.83;71.09;100521.69;5060993;28;45315;-75
2023/09/27 00:39:39;;;;;;;;;11.00;10.75;;;;;18.86;70.76;100524.34;5058612;28;45558;-76
2023/09/27 00:42:05;;;;;;;;;13.75;12.75;;;;;18.90;70.71;100537.53;5057720;28;45688;-75
2023/09/27 00:44:30;;;;;;;;;13.50;13.50;;;;;18.92;70.61;100556.94;5057871;28;45309;-83
2023/09/27 00:46:57;;;;;;;;;11.25;11.25;;;;;18.79;70.66;100522.59;5057855;28;45341;-75
2023/09/27 00:49:23;;;;;;;;;14.25;13.50;;;;;19.00;71.02;100549.84;5040079;28;45309;-78
2023/09/27 00:51:49;;;;;;;;;14.00;13.50;;;;;18.99;70.83;100548.09;5039335;28;48096;-75
2023/09/27 00:54:15;;;;;;;;;12.50;12.50;;;;;18.90;70.59;100540.19;5057537;28;45412;-75
2023/09/27 00:56:41;;;;;;;;;13.25;12.50;;;;;18.98;70.52;100557.81;5058130;28;45308;-75
2023/09/27 00:59:08;;;;;;;;;13.00;13.00;;;;;18.97;70.88;100552.53;5039713;28;45375;-82
2023/09/27 01:01:34;;;;;;;;;13.75;13.00;;;;;18.99;70.43;100548.97;5039289;28;45493;-76
2023/09/27 01:04:00;;;;;;;;;13.25;13.25;;;;;19.05;70.59;100542.78;5038879;28;45592;-76
2023/09/27 01:06:26;;;;;;;;;13.50;13.00;;;;;19.04;70.28;100531.31;5056533;28;45525;-76
2023/09/27 01:08:51;;;;;;;;;13.00;12.50;;;;;19.09;69.70;100525.97;5056714;28;45588;-76
2023/09/27 01:11:17;;;;;;;;;12.75;12.25;;;;;19.16;69.96;100533.03;5056175;28;45904;-75
2023/09/27 01:13:43;;;;;;;;;13.00;13.00;;;;;19.19;69.80;100535.63;5038379;28;45421;-75
2023/09/27 01:16:09;;;;;;;;;14.00;13.00;;;;;19.17;69.77;100533.88;5056759;28;45358;-75
2023/09/27 01:18:35;;;;;;;;;14.50;13.25;;;;;19.18;69.87;100533.88;5072784;28;45656;-75
2023/09/27 01:21:01;;;;;;;;;12.25;12.00;;;;;18.99;69.91;100511.91;5061626;28;45982;-81
2023/09/27 01:23:28;;;;;;;;;10.50;10.50;;;;;18.96;70.18;100505.75;5067676;28;45465;-75
2023/09/27 01:26:03;;;;;;;;;14.00;13.50;;;;;18.89;70.10;100489.03;5070063;28;45540;-75
2023/09/27 01:28:30;;;;;;;;;19.00;17.00;;;;;18.73;70.54;100477.59;5057842;28;46162;-75
2023/09/27 01:30:55;;;;;;;;;17.25;15.00;;;;;18.74;71.60;100486.41;5056573;28;46107;-75
2023/09/27 01:33:21;;;;;;;;;19.50;15.75;;;;;18.64;71.85;100467.03;5067344;28;45197;-75
2023/09/27 01:35:46;;;;;;;;;18.00;15.25;;;;;18.63;72.37;100471.47;5041220;28;45323;-75
2023/09/27 01:38:13;;;;;;;;;16.00;15.25;;;;;18.66;72.33;100459.97;5059713;28;45454;-76
2023/09/27 01:40:42;;;;;;;;;17.50;16.00;;;;;18.73;72.22;100464.38;5069723;28;46225;-75
2023/09/27 01:43:08;;;;;;;;;16.00;15.00;;;;;18.80;72.33;100463.50;5067989;28;45417;-76
2023/09/27 01:45:34;;;;;;;;;13.25;13.00;;;;;18.55;72.86;100406.25;5060935;28;45460;-76
2023/09/27 01:48:01;;;;;;;;;19.25;16.25;;;;;18.71;72.54;100413.22;5057173;28;45483;-82
2023/09/27 01:50:29;;;;;;;;;19.50;17.50;;;;;18.84;72.68;100422.88;5056378;28;45488;-83
2023/09/27 01:52:56;;;;;;;;;19.75;18.00;;;;;18.88;73.24;100421.13;5049658;28;45528;-75
2023/09/27 01:55:24;;;;;;;;;18.75;14.75;;;;;18.95;73.51;100424.59;5041517;28;46351;-75
2023/09/27 01:57:49;;;;;;;;;20.25;15.50;;;;;18.90;73.16;100413.13;5072236;28;45556;-75
2023/09/27 02:00:17;;;;;;;;;16.50;14.75;;;;;18.89;73.56;100404.31;5056456;28;46037;-75
2023/09/27 02:03:00;;;;;;;;;13.75;13.75;;;;;18.81;73.60;100396.44;5056731;28;45634;-75
2023/09/27 02:05:29;;;;;;;;;15.00;15.00;;;;;18.73;73.67;100369.09;5057725;28;45534;-76
2023/09/27 02:07:54;;;;;;;;;14.75;14.50;;;;;18.76;73.14;100374.41;5043207;28;45643;-79
2023/09/27 02:10:21;;;;;;;;;12.50;11.00;;;;;18.84;72.90;100379.63;5037694;28;45287;-75
2023/09/27 02:12:46;;;;;;;;;18.00;14.75;;;;;18.56;72.41;100341.88;5071513;28;45438;-75
2023/09/27 02:15:14;;;;;;;;;14.00;12.25;;;;;18.73;71.74;100376.19;5057550;28;45623;-75
2023/09/27 02:17:40;;;;;;;;;16.25;13.75;;;;;18.70;71.97;100371.75;5065276;27;45516;-75
2023/09/27 02:20:09;;;;;;;;;14.00;12.50;;;;;18.72;72.33;100377.03;5037358;28;47717;-76
2023/09/27 02:22:35;;;;;;;;;15.00;13.25;;;;;18.58;72.18;100366.53;5037671;28;45453;-76
2023/09/27 02:25:01;;;;;;;;;12.75;11.75;;;;;18.63;72.04;100375.34;5037583;28;45433;-84
2023/09/27 02:27:26;;;;;;;;;17.00;13.75;;;;;18.57;71.66;100364.81;5052856;28;45617;-75
2023/09/27 02:29:52;;;;;;;;;15.00;13.25;;;;;18.62;71.72;100379.78;5055437;28;45398;-75
2023/09/27 02:32:18;;;;;;;;;14.25;14.00;;;;;18.59;71.86;100376.25;5055928;28;45522;-83
2023/09/27 02:34:44;;;;;;;;;12.75;11.50;;;;;18.51;71.65;100356.91;5055728;28;45673;-75
2023/09/27 02:37:10;;;;;;;;;12.50;11.25;;;;;18.51;71.38;100360.41;5055071;28;45763;-75
2023/09/27 02:39:36;;;;;;;;;12.00;11.25;;;;;18.54;71.62;100365.69;5050313;28;47567;-75
2023/09/27 02:42:03;;;;;;;;;15.00;13.75;;;;;18.53;71.65;100363.06;5057143;28;45554;-74
2023/09/27 02:44:29;;;;;;;;;13.00;12.50;;;;;18.44;71.50;100349.00;5059160;28;45489;-75
2023/09/27 02:46:57;;;;;;;;;13.25;12.50;;;;;18.42;71.66;100342.84;5060413;28;45449;-75
2023/09/27 02:49:23;;;;;;;;;13.75;12.25;;;;;18.42;71.56;100349.88;5072600;28;45609;-75
2023/09/27 02:51:52;;;;;;;;;12.25;11.25;;;;;18.44;71.83;100346.38;5058795;28;45557;-75
2023/09/27 02:54:18;;;;;;;;;12.00;10.25;;;;;18.52;71.79;100350.72;5041380;28;45331;-82
2023/09/27 02:56:44;;;;;;;;;14.00;14.00;;;;;18.49;71.81;100355.13;5058671;28;45423;-75
2023/09/27 02:59:13;;;;;;;;;11.00;11.00;;;;;18.51;71.82;100351.63;5040641;28;46265;-83
2023/09/27 03:01:41;;;;;;;;;13.50;13.50;;;;;18.56;71.47;100353.34;5050371;28;45423;-75
2023/09/27 03:04:11;;;;;;;;;13.00;12.25;;;;;18.60;71.31;100352.44;5066407;28;45533;-75
2023/09/27 03:06:41;;;;;;;;;13.00;12.00;;;;;18.58;71.68;100346.28;5077485;28;45628;-75
2023/09/27 03:09:11;;;;;;;;;12.00;12.00;;;;;18.54;71.82;100338.34;5069884;28;45448;-75
2023/09/27 03:11:39;;;;;;;;;11.00;10.25;;;;;18.40;71.75;100328.75;5058540;28;45532;-83
2023/09/27 03:14:05;;;;;;;;;12.50;11.25;;;;;18.61;71.76;100348.03;5058424;28;45442;-82
2023/09/27 03:16:31;;;;;;;;;15.00;13.50;;;;;18.61;71.23;100332.16;5040423;28;45663;-81
2023/09/27 03:18:59;;;;;;;;;11.25;11.00;;;;;18.59;71.33;100324.22;5040709;28;47823;-75
2023/09/27 03:21:28;;;;;;;;;12.75;12.75;;;;;18.59;71.03;100334.78;5058361;28;45311;-76
2023/09/27 03:23:54;;;;;;;;;14.00;13.50;;;;;18.55;71.01;100326.91;5058443;28;45398;-75
2023/09/27 03:26:23;;;;;;;;;13.50;13.00;;;;;18.57;71.35;100331.28;5064029;28;46401;-83
2023/09/27 03:28:50;;;;;;;;;12.50;12.50;;;;;18.55;71.28;100329.53;5078193;27;46121;-81
2023/09/27 03:31:16;;;;;;;;;12.25;12.00;;;;;18.59;71.07;100336.56;5046476;28;45544;-75
2023/09/27 03:33:41;;;;;;;;;14.50;13.75;;;;;18.37;71.46;100326.13;5058224;28;45406;-81
2023/09/27 03:36:07;;;;;;;;;10.00;10.00;;;;;18.33;71.46;100329.66;5058147;28;45594;-75
2023/09/27 03:38:33;;;;;;;;;12.00;12.00;;;;;18.32;71.23;100341.13;5058186;28;46311;-83
2023/09/27 03:40:59;;;;;;;;;13.25;13.25;;;;;18.11;71.69;100328.03;5057910;28;45545;-83
2023/09/27 03:43:24;;;;;;;;;14.00;13.00;;;;;18.15;71.79;100321.84;5058107;28;45315;-74
2023/09/27 03:45:51;;;;;;;;;14.50;14.50;;;;;18.21;71.77;100321.81;5044721;28;45544;-75
2023/09/27 03:48:17;;;;;;;;;14.00;13.25;;;;;18.18;71.77;100305.94;5059709;28;45689;-83
2023/09/27 03:50:42;;;;;;;;;16.00;14.75;;;;;18.18;71.79;100303.28;5077510;28;45535;-82
2023/09/27 03:53:08;;;;;;;;;11.25;11.00;;;;;18.11;71.64;100288.38;5060574;28;45546;-83
2023/09/27 03:55:34;;;;;;;;;16.75;14.25;;;;;18.17;72.15;100302.41;5073055;28;46124;-75
2023/09/27 03:57:59;;;;;;;;;15.00;14.75;;;;;18.17;71.79;100296.25;5057960;28;45481;-75
2023/09/27 04:00:25;;;;;;;;;14.00;13.00;;;;;18.12;71.78;100290.97;5056195;28;45493;-75
2023/09/27 04:02:51;;;;;;;;;12.75;12.50;;;;;18.13;71.46;100291.88;5073170;28;45430;-78
2023/09/27 04:05:25;;;;;;;;;10.75;10.75;;;;;18.00;72.15;100289.28;5060415;28;45516;-79
2023/09/27 04:07:51;;;;;;;;;11.00;10.25;;;;;17.73;71.92;100228.63;5063673;28;46224;-82
2023/09/27 04:10:18;;;;;;;;;14.50;11.75;;;;;18.00;72.05;100286.63;5058471;28;45387;-83
2023/09/27 04:12:44;;;;;;;;;13.25;13.25;;;;;17.95;72.46;100288.44;5077847;27;45525;-83
2023/09/27 04:15:10;;;;;;;;;12.75;12.00;;;;;17.88;72.55;100271.69;5041650;28;45391;-75
2023/09/27 04:17:37;;;;;;;;;10.75;10.75;;;;;18.05;72.34;100303.34;5056638;28;45478;-76
2023/09/27 04:20:19;;;;;;;;;13.25;13.00;;;;;17.92;72.49;100285.78;5059282;28;45569;-76
2023/09/27 04:22:49;;;;;;;;;11.50;11.00;;;;;18.00;72.42;100297.19;5069265;28;45374;-83
2023/09/27 04:25:15;;;;;;;;;11.75;10.25;;;;;17.73;71.54;100252.41;5070370;28;45506;-83
2023/09/27 04:27:43;;;;;;;;;13.75;12.50;;;;;17.93;71.53;100287.56;5075448;27;45391;-74
2023/09/27 04:30:13;;;;;;;;;15.75;13.75;;;;;17.94;71.66;100299.00;5039471;28;45478;-75
2023/09/27 04:32:43;;;;;;;;;13.00;12.25;;;;;17.86;71.87;100283.19;5073082;28;45602;-75
2023/09/27 04:35:09;;;;;;;;;14.00;13.50;;;;;17.82;71.67;100265.53;5076909;28;45508;-75
2023/09/27 04:37:36;;;;;;;;;15.25;13.50;;;;;17.74;72.00;100257.66;5076451;28;46175;-75
2023/09/27 04:40:08;;;;;;;;;15.25;15.25;;;;;17.74;72.07;100262.94;5066352;28;45413;-75
2023/09/27 04:42:34;;;;;;;;;15.50;15.25;;;;;17.81;71.63;100266.44;5055893;28;45425;-75
2023/09/27 04:45:00;;;;;;;;;14.00;13.00;;;;;17.86;71.21;100264.69;5069314;28;45663;-75
2023/09/27 04:47:26;;;;;;;;;12.50;12.00;;;;;17.82;71.43;100273.47;5057256;28;45501;-75
2023/09/27 04:49:52;;;;;;;;;12.50;12.00;;;;;17.74;71.60;100256.78;5050071;28;45414;-82
2023/09/27 04:52:18;;;;;;;;;13.50;13.50;;;;;17.52;71.52;100214.59;5061862;28;45418;-75
2023/09/27 04:54:44;;;;;;;;;15.00;14.00;;;;;17.66;71.88;100249.75;5056922;28;45508;-74
2023/09/27 04:57:09;;;;;;;;;13.75;13.25;;;;;17.70;71.91;100251.50;5044750;28;46202;-83
2023/09/27 04:59:36;;;;;;;;;11.75;11.25;;;;;17.77;71.83;100260.28;5066400;28;45590;-75
2023/09/27 05:02:02;;;;;;;;;17.00;14.00;;;;;17.60;71.56;100251.53;5054302;28;45473;-75
2023/09/27 05:04:28;;;;;;;;;13.00;11.00;;;;;17.58;71.81;100243.63;5056274;28;45711;-75
2023/09/27 05:06:53;;;;;;;;;12.00;11.00;;;;;17.61;71.50;100243.63;5047513;28;45555;-75
2023/09/27 05:09:19;;;;;;;;;13.75;12.00;;;;;17.62;71.64;100244.50;5038904;28;45406;-75
2023/09/27 05:11:46;;;;;;;;;13.25;13.25;;;;;17.28;71.53;100200.59;5056697;28;45614;-77
2023/09/27 05:14:13;;;;;;;;;11.75;11.75;;;;;17.50;71.68;100250.69;5038229;28;45366;-79
2023/09/27 05:16:38;;;;;;;;;11.25;11.00;;;;;17.48;71.76;100239.25;5072331;28;45517;-78
2023/09/27 05:19:04;;;;;;;;;11.50;10.25;;;;;17.44;71.53;100232.22;5038121;28;46126;-74
2023/09/27 05:21:29;;;;;;;;;14.00;13.25;;;;;17.45;71.77;100234.00;5042685;28;45446;-75
2023/09/27 05:23:55;;;;;;;;;11.75;11.75;;;;;17.22;72.20;100205.00;5057120;28;45637;-76
2023/09/27 05:26:21;;;;;;;;;11.00;11.00;;;;;17.30;72.36;100217.28;5071400;28;45485;-75
2023/09/27 05:28:46;;;;;;;;;13.50;12.75;;;;;17.39;72.16;100221.69;5059025;28;45492;-76
2023/09/27 05:31:12;;;;;;;;;14.50;14.00;;;;;17.39;72.31;100220.78;5070040;28;45398;-82
2023/09/27 05:33:38;;;;;;;;;10.50;10.50;;;;;17.34;71.90;100225.22;5057196;28;45308;-82
2023/09/27 05:36:03;;;;;;;;;12.00;12.00;;;;;17.32;71.71;100219.06;5056398;28;45501;-76
2023/09/27 05:38:29;;;;;;;;;13.50;12.00;;;;;17.27;71.81;100212.03;5038249;28;45415;-74
2023/09/27 05:40:55;;;;;;;;;13.25;12.75;;;;;17.40;72.28;100234.00;5038594;28;45532;-75
2023/09/27 05:43:20;;;;;;;;;13.00;12.00;;;;;17.41;71.84;100234.91;5038826;28;45566;-84
2023/09/27 05:45:46;;;;;;;;;13.25;12.75;;;;;17.40;72.57;100225.19;5056154;28;45457;-76
2023/09/27 05:48:14;;;;;;;;;14.25;12.50;;;;;17.38;72.15;100217.28;5066170;28;45593;-83
2023/09/27 05:50:44;;;;;;;;;13.75;13.00;;;;;17.44;72.25;100219.88;5062160;28;45482;-83
2023/09/27 05:53:11;;;;;;;;;13.75;13.50;;;;;17.52;72.62;100226.91;5056237;28;45367;-83
2023/09/27 05:55:37;;;;;;;;;16.25;14.50;;;;;17.50;72.56;100213.72;5059654;28;45584;-83
2023/09/27 05:58:03;;;;;;;;;12.50;12.00;;;;;17.69;72.38;100236.53;5065291;28;45765;-83
2023/09/27 06:00:37;;;;;;;;;11.25;11.00;;;;;17.77;73.07;100227.72;5056611;28;45406;-78
2023/09/27 06:03:06;;;;;;;;;11.00;11.00;;;;;17.68;72.49;100196.91;5055902;28;45340;-74
2023/09/27 06:05:33;;;;;;;;;12.00;11.25;;;;;17.74;72.50;100181.03;5070821;28;46088;-75
2023/09/27 06:07:59;;;;;;;;;14.50;13.25;;;;;18.04;72.38;100226.72;5038696;28;45261;-75
2023/09/27 06:10:25;;;;;;;;;15.00;15.00;;;;;18.09;71.67;100223.16;5056452;28;45490;-75
2023/09/27 06:12:50;;;;;;;;;12.75;12.75;;;;;18.04;72.05;100216.13;5056028;28;45442;-83
2023/09/27 06:15:17;;;;;;;;;14.75;13.00;;;;;18.18;71.51;100231.91;5055648;28;46241;-80
2023/09/27 06:17:43;;;;;;;;;15.25;14.00;;;;;18.20;71.23;100223.06;5057993;28;45490;-81
2023/09/27 06:20:19;;;;;;;;;22.75;21.25;;;;;18.30;71.47;100221.25;5076826;28;45395;-83
2023/09/27 06:22:52;;;;;;;;;19.00;18.00;;;;;18.46;70.83;100237.88;5060625;28;45481;-81
2023/09/27 06:25:19;;;;;;;;;16.50;15.50;;;;;18.53;70.71;100222.88;5073976;27;46144;-82
2023/09/27 06:27:45;;;;;;;;;15.00;13.25;;;;;18.60;71.33;100214.88;5078517;28;45473;-76
2023/09/27 06:30:14;;;;;;;;;20.75;18.50;;;;;18.82;70.98;100218.25;5078024;27;45402;-83
2023/09/27 06:32:40;;;;;;;;;13.50;13.25;;;;;19.03;70.97;100216.28;5069498;28;45664;-77
2023/09/27 06:35:12;;;;;;;;;14.00;14.00;;;;;19.22;70.82;100214.31;5076986;27;45930;-80
2023/09/27 06:37:50;;;;;;;;;12.25;12.25;;;;;19.31;70.75;100200.09;5074272;28;45323;-81
2023/09/27 06:40:17;;;;;;;;;13.25;13.25;;;;;19.59;70.10;100209.44;5057958;28;45584;-80
2023/09/27 06:42:47;;;;;;;;;15.75;13.50;;;;;19.71;70.02;100200.50;5068002;28;45359;-82
2023/09/27 06:45:13;;;;;;;;;11.33;11.00;;;;;19.95;69.64;100211.69;5076634;28;45351;-83
2023/09/27 06:47:45;;;;;;;;;9.50;9.50;;;;;20.26;68.71;100226.25;5076653;28;46538;-83
2023/09/27 06:50:15;;;;;;;;;8.33;8.33;;;;;20.57;67.99;100223.13;5057972;28;45532;-78
2023/09/27 06:52:40;;;;;;;;;8.67;8.33;;;;;20.89;65.97;100227.06;5056772;28;46397;-84
2023/09/27 06:55:10;;;;;;;;;7.00;7.00;;;;;21.10;65.66;100203.66;5077352;27;46594;-84
2023/09/27 06:57:38;;;;;;;;;6.67;6.00;;;;;21.43;64.27;100220.78;5078206;28;45477;-84
2023/09/27 07:00:18;;;;;;;;;6.00;6.00;;;;;21.85;63.26;100221.66;5078325;28;45427;-82
2023/09/27 07:02:47;;;;;;;;;7.00;5.33;;;;;23.03;61.03;100215.31;5078512;28;45301;-83
2023/09/27 07:05:14;;;;;;;;;5.00;5.00;;;;;25.06;56.43;100197.56;5076665;28;46223;-78
2023/09/27 07:07:40;;;;;;;;;5.00;5.00;;;;;27.04;50.81;100205.00;5056080;28;45355;-80
2023/09/27 07:10:07;;;;;;;;;5.67;5.00;;;;;28.58;47.75;100200.56;5078286;28;45469;-82
2023/09/27 07:12:37;;;;;;;;;5.00;4.00;;;;;28.92;45.73;100177.34;5066542;28;45555;-84
2023/09/27 07:15:14;;;;;;;;;4.00;3.33;;;;;28.65;45.34;100188.56;5075773;28;45641;-81
2023/09/27 07:17:40;;;;;;;;;6.00;5.00;;;;;28.20;46.85;100216.72;5075333;28;45569;-76
2023/09/27 07:20:13;;;;;;;;;6.67;5.00;;;;;27.86;47.33;100209.41;5058088;28;45502;-77
2023/09/27 07:22:39;;;;;;;;;4.67;4.33;;;;;27.60;46.26;100213.31;5058041;28;45671;-77
2023/09/27 07:25:12;;;;;;;;;3.33;3.33;;;;;27.99;45.54;100204.34;5074433;28;45616;-82
2023/09/27 07:27:38;;;;;;;;;4.33;4.33;;;;;28.50;45.24;100213.47;5077711;27;45367;-83
2023/09/27 07:30:04;;;;;;;;;4.00;4.00;;;;;29.18;43.76;100223.53;5068833;28;45634;-86
2023/09/27 07:32:30;;;;;;;;;4.00;4.00;;;;;29.55;43.10;100244.84;5058301;28;45506;-86
2023/09/27 07:34:58;;;;;;;;;6.00;6.00;;;;;30.33;41.26;100228.91;5056119;28;46372;-77
2023/09/27 07:37:24;;;;;;;;;4.67;4.00;;;;;30.99;41.39;100234.97;5064721;28;45376;-77
2023/09/27 07:39:50;;;;;;;;;4.00;4.00;;;;;31.42;39.64;100213.47;5078519;28;45303;-77
2023/09/27 07:42:15;;;;;;;;;4.00;4.00;;;;;31.93;38.04;100212.97;5056934;28;45537;-83
2023/09/27 07:44:42;;;;;;;;;8.67;7.00;;;;;32.64;37.13;100228.19;5058403;28;45965;-77
2023/09/27 07:47:08;;;;;;;;;4.67;4.00;;;;;33.67;33.94;100225.66;5064461;28;45514;-77
2023/09/27 07:49:34;;;;;;;;;2.67;2.67;;;;;34.39;35.48;100241.22;5078377;27;45466;-77
2023/09/27 07:51:59;;;;;;;;;2.00;2.00;;;;;34.97;33.21;100227.78;5046406;28;45644;-78
2023/09/27 07:54:25;;;;;;;;;4.00;3.67;;;;;35.87;31.59;100227.09;5059768;28;45466;-76
2023/09/27 07:56:51;;;;;;;;;3.00;3.00;;;;;36.97;32.40;100242.41;5054510;28;46060;-85
2023/09/27 07:59:17;;;;;;;;;3.00;3.00;;;;;37.77;28.94;100227.28;5068491;28;45486;-77
2023/09/27 08:01:42;;;;;;;;;3.33;2.33;;;;;38.61;26.61;100231.53;5064524;27;45300;-77
2023/09/27 08:04:12;;;;;;;;;2.00;1.00;;;;;39.27;27.16;100227.19;5073083;28;45393;-77
2023/09/27 08:06:38;;;;;;;;;6.33;5.67;;;;;39.92;26.68;100233.63;5040830;28;45278;-76
2023/09/27 08:09:06;;;;;;;;;3.00;3.00;;;;;40.67;26.91;100251.72;5058675;28;45501;-78
2023/09/27 08:11:31;;;;;;;;;3.00;3.00;;;;;40.94;26.85;100240.69;5058727;28;45365;-84
2023/09/27 08:13:57;;;;;;;;;2.33;2.00;;;;;40.94;25.30;100251.66;5051025;28;46076;-85
2023/09/27 08:16:23;;;;;;;;;2.00;2.00;;;;;40.59;25.31;100252.53;5069103;27;45435;-77
2023/09/27 08:18:49;;;;;;;;;7.00;5.00;;;;;40.16;25.77;100251.34;5077668;28;45370;-85
2023/09/27 08:21:14;;;;;;;;;2.67;2.00;;;;;39.73;26.13;100267.38;5072448;28;45292;-84
2023/09/27 08:23:41;;;;;;;;;2.67;2.67;;;;;39.33;25.29;100260.22;5039559;28;46789;-83
2023/09/27 08:26:12;;;;;;;;;4.00;4.00;;;;;39.57;26.69;100278.94;5058718;28;45304;-85
2023/09/27 08:28:39;;;;;;;;;3.00;3.00;;;;;39.61;26.60;100254.88;5057900;28;45385;-85
2023/09/27 08:31:05;;;;;;;;;3.00;3.00;;;;;39.76;25.63;100256.09;5058922;28;46466;-79
2023/09/27 08:33:31;;;;;;;;;2.00;2.00;;;;;40.48;25.15;100274.63;5058945;28;46369;-81
2023/09/27 08:35:57;;;;;;;;;3.00;2.00;;;;;41.20;25.46;100247.25;5039845;28;45808;-84
2023/09/27 08:38:22;;;;;;;;;2.33;2.33;;;;;41.92;24.77;100256.97;5057614;28;45378;-84
2023/09/27 08:40:48;;;;;;;;;2.33;1.67;;;;;42.11;23.52;100255.88;5054186;28;45435;-85
2023/09/27 08:43:17;;;;;;;;;2.00;1.67;;;;;42.59;23.15;100250.69;5079887;28;46225;-84
2023/09/27 08:45:45;;;;;;;;;2.67;2.33;;;;;42.81;22.78;100253.78;5081799;28;44846;-78
2023/09/27 08:48:16;;;;;;;;;3.00;2.00;;;;;43.02;24.10;100248.69;5063264;28;45574;-78
2023/09/27 08:50:43;;;;;;;;;5.00;4.00;;;;;43.36;22.08;100255.88;5069230;27;45462;-77
2023/09/27 08:53:10;;;;;;;;;2.67;2.67;;;;;43.22;23.13;100259.31;5075768;27;46053;-78
2023/09/27 08:55:38;;;;;;;;;2.33;2.33;;;;;43.17;22.53;100262.56;5060818;28;45525;-82
2023/09/27 08:58:06;;;;;;;;;3.67;3.00;;;;;43.41;23.56;100269.94;5068453;27;45398;-80
2023/09/27 09:00:32;;;;;;;;;3.33;3.33;;;;;43.75;21.64;100259.75;5038997;28;45601;-79
2023/09/27 09:03:00;;;;;;;;;4.00;4.00;;;;;43.54;21.42;100244.66;5054155;28;45489;-83
2023/09/27 09:05:28;;;;;;;;;4.67;4.33;;;;;43.50;21.59;100263.41;5055549;28;45549;-83
2023/09/27 09:07:59;;;;;;;;;2.00;2.00;;;;;43.52;21.77;100265.13;5056357;28;45410;-79
2023/09/27 09:10:25;;;;;;;;;2.67;2.67;;;;;43.62;22.16;100265.78;5064977;28;45398;-80
2023/09/27 09:12:52;;;;;;;;;5.33;4.33;;;;;43.95;20.09;100257.44;5046826;28;46654;-85
2023/09/27 09:15:35;;;;;;;;;2.00;2.00;;;;;43.52;20.17;100270.63;5038723;28;45359;-81
2023/09/27 09:18:08;;;;;;;;;4.67;4.67;;;;;43.33;21.67;100258.97;5058383;28;45382;-78
2023/09/27 09:20:58;;;;;;;;;2.67;2.67;;;;;43.35;19.14;100267.06;5066272;28;45465;-79
2023/09/27 09:23:33;;;;;;;;;3.33;3.00;;;;;43.18;21.38;100269.78;5060182;28;46049;-80
2023/09/27 09:26:12;;;;;;;;;3.00;3.00;;;;;43.21;21.59;100291.41;5076002;28;45512;-78
2023/09/27 09:29:02;;;;;;;;;3.00;2.67;;;;;43.18;21.18;100282.69;5060733;28;45588;-82
2023/09/27 09:31:29;;;;;;;;;3.67;2.67;;;;;43.06;20.93;100283.03;5060787;28;45535;-82
2023/09/27 09:34:08;;;;;;;;;4.00;4.00;;;;;42.96;21.86;100273.22;5076226;28;46680;-81
2023/09/27 09:36:36;;;;;;;;;3.67;3.33;;;;;43.02;20.66;100276.16;5054848;28;45373;-84
2023/09/27 09:39:06;;;;;;;;;5.33;5.33;;;;;43.13;20.55;100271.34;5072369;28;45544;-84
2023/09/27 09:41:49;;;;;;;;;2.00;2.00;;;;;42.86;20.54;100262.44;5038306;28;45264;-84
2023/09/27 09:44:24;;;;;;;;;1.00;1.00;;;;;43.02;20.78;100276.16;5054650;28;46457;-83
2023/09/27 09:46:53;;;;;;;;;2.00;1.33;;;;;42.67;20.67;100263.56;5056125;28;45474;-80
2023/09/27 09:49:21;;;;;;;;;2.67;2.67;;;;;42.88;20.03;100263.97;5056397;28;45368;-83
2023/09/27 09:51:49;;;;;;;;;1.67;1.67;;;;;42.95;19.95;100263.28;5039104;28;45549;-81
2023/09/27 09:54:28;;;;;;;;;2.67;2.67;;;;;42.98;19.88;100266.53;5056657;28;45507;-83
2023/09/27 09:56:57;;;;;;;;;2.00;2.00;;;;;43.02;20.12;100264.31;5074486;27;45246;-80
2023/09/27 09:59:31;;;;;;;;;2.00;2.00;;;;;42.93;20.04;100248.84;5064392;28;45504;-84
2023/09/27 10:01:59;;;;;;;;;1.67;1.67;;;;;42.90;19.38;100250.06;5057058;28;45502;-83
2023/09/27 10:04:26;;;;;;;;;3.00;2.00;;;;;42.69;20.41;100253.28;5062846;28;45414;-82
2023/09/27 10:06:55;;;;;;;;;2.00;2.00;;;;;42.33;19.06;100234.31;5059597;28;45429;-81
2023/09/27 10:09:28;;;;;;;;;2.67;2.67;;;;;42.07;19.42;100231.66;5061799;28;45478;-84
2023/09/27 10:11:55;;;;;;;;;4.67;4.00;;;;;41.48;19.51;100242.47;5062049;28;45564;-82
2023/09/27 10:14:22;;;;;;;;;4.00;4.00;;;;;40.77;20.88;100240.72;5041857;28;45320;-80
2023/09/27 10:16:48;;;;;;;;;0.67;0.67;;;;;39.93;21.02;100237.19;5040708;28;45509;-82
2023/09/27 10:19:28;;;;;;;;;1.67;1.67;;;;;39.55;21.37;100230.88;5041348;28;45489;-83
2023/09/27 10:22:05;;;;;;;;;2.00;2.00;;;;;39.27;22.24;100240.84;5041035;28;45620;-84
2023/09/27 10:24:36;;;;;;;;;2.00;2.00;;;;;39.38;22.36;100247.00;5052720;28;45725;-82
2023/09/27 10:27:02;;;;;;;;;2.00;1.33;;;;;39.43;22.79;100237.53;5059763;28;45281;-80
2023/09/27 10:29:29;;;;;;;;;2.00;2.00;;;;;39.70;22.16;100255.84;5080172;28;45316;-83
2023/09/27 10:31:57;;;;;;;;;1.00;1.00;;;;;39.43;22.12;100256.66;5079564;28;45375;-82
2023/09/27 10:34:25;;;;;;;;;6.00;5.00;;;;;39.44;22.45;100255.66;5065685;28;45478;-83
2023/09/27 10:36:53;;;;;;;;;2.67;2.00;;;;;39.44;22.94;100247.47;5058616;28;45199;-84
2023/09/27 10:39:19;;;;;;;;;2.00;2.00;;;;;39.36;22.91;100254.50;5074087;28;45361;-83
2023/09/27 10:41:49;;;;;;;;;2.00;2.00;;;;;39.48;23.84;100268.03;5068473;28;45501;-83
2023/09/27 10:44:29;;;;;;;;;2.00;2.00;;;;;39.63;23.53;100277.44;5047171;28;46392;-83
2023/09/27 10:46:56;;;;;;;;;2.00;2.00;;;;;39.91;22.80;100277.50;5057428;28;45360;-81
2023/09/27 10:49:26;;;;;;;;;2.00;2.00;;;;;39.91;23.17;100278.41;5058918;28;45662;-82
2023/09/27 10:51:53;;;;;;;;;2.00;2.00;;;;;39.91;23.64;100282.97;5059203;28;45535;-82
2023/09/27 10:54:26;;;;;;;;;1.33;1.33;;;;;39.83;23.79;100282.84;5058897;28;45469;-79
2023/09/27 10:56:53;;;;;;;;;3.00;3.00;;;;;39.19;23.43;100267.00;5058699;28;45387;-81
2023/09/27 10:59:28;;;;;;;;;1.00;1.00;;;;;39.09;23.45;100284.44;5059131;28;45442;-82
2023/09/27 11:01:55;;;;;;;;;3.00;3.00;;;;;38.99;23.75;100284.44;5059176;28;45388;-83
2023/09/27 11:04:25;;;;;;;;;3.00;3.00;;;;;38.67;24.23;100279.25;5058515;28;45239;-80
2023/09/27 11:06:51;;;;;;;;;3.00;3.00;;;;;38.51;24.84;100279.75;5058757;28;45457;-80
2023/09/27 11:09:21;;;;;;;;;6.00;4.67;;;;;38.48;24.35;100285.50;5050443;28;45371;-82
2023/09/27 11:11:47;;;;;;;;;3.33;3.33;;;;;38.35;24.74;100283.91;5064380;28;45529;-82
2023/09/27 11:14:33;;;;;;;;;3.00;3.00;;;;;38.34;24.35;100281.28;5057872;28;45474;-83
2023/09/27 11:17:23;;;;;;;;;3.00;2.33;;;;;38.20;24.11;100278.00;5058641;28;45450;-79